Time;durP1;ratioP1;P1;durP2;ratioP2;P2;SDS_P1;SDS_P2;PMS_P1;PMS_P2;Temp;Humidity;BMP_temperature;BMP_pressure;BME280_temperature;BME280_humidity;BME280_pressure;Samples;Min_cycle;Max_cycle;Signal;HPM_P1;HPM_P2
2023/12/15 00:01:42;;;;;;;14.95;12.15;;;7.00;99.90;;;;;;4936199;29;20237;-75
2023/12/15 00:04:09;;;;;;;10.65;9.13;;;6.90;99.90;;;;;;4926340;29;20308;-75
2023/12/15 00:06:36;;;;;;;12.38;9.13;;;7.00;99.90;;;;;;4935856;29;20232;-76
2023/12/15 00:09:04;;;;;;;10.80;9.70;;;6.90;99.90;;;;;;4935208;29;20244;-77
2023/12/15 00:11:31;;;;;;;11.23;10.07;;;6.90;99.90;;;;;;4935428;29;20632;-82
2023/12/15 00:13:58;;;;;;;13.25;10.82;;;7.00;99.90;;;;;;4934787;29;20220;-82
2023/12/15 00:16:26;;;;;;;11.90;10.68;;;6.90;99.90;;;;;;4936066;29;20275;-82
2023/12/15 00:18:53;;;;;;;10.77;9.27;;;6.90;99.90;;;;;;4933824;29;20231;-81
2023/12/15 00:21:20;;;;;;;11.98;10.60;;;6.90;99.90;;;;;;4935543;29;20229;-81
2023/12/15 00:23:47;;;;;;;12.75;10.55;;;6.90;99.90;;;;;;4935528;29;20235;-77
2023/12/15 00:26:15;;;;;;;12.52;10.32;;;6.90;99.90;;;;;;4935251;29;20284;-81
2023/12/15 00:28:44;;;;;;;13.30;10.02;;;6.90;99.90;;;;;;4935092;29;20314;-81
2023/12/15 00:31:11;;;;;;;12.13;10.00;;;6.90;99.90;;;;;;4935294;29;20239;-76
2023/12/15 00:33:40;;;;;;;12.63;10.27;;;6.90;99.90;;;;;;4934721;29;20247;-79
2023/12/15 00:36:08;;;;;;;12.00;10.80;;;6.90;99.90;;;;;;4935169;29;20228;-77
2023/12/15 00:38:35;;;;;;;14.93;10.77;;;6.90;99.90;;;;;;4938648;29;20280;-81
2023/12/15 00:41:02;;;;;;;12.82;10.55;;;6.90;99.90;;;;;;4938212;29;20259;-80
2023/12/15 00:43:29;;;;;;;13.15;10.30;;;6.90;99.90;;;;;;4938876;29;20232;-83
2023/12/15 00:45:56;;;;;;;13.55;10.45;;;6.90;99.90;;;;;;4938473;29;20233;-77
2023/12/15 00:48:23;;;;;;;13.23;10.52;;;6.90;99.90;;;;;;4938413;29;20224;-76
2023/12/15 00:50:51;;;;;;;12.82;10.00;;;6.90;99.90;;;;;;4938643;29;20573;-81
2023/12/15 00:53:19;;;;;;;12.80;10.07;;;6.90;99.90;;;;;;4938359;29;20224;-81
2023/12/15 00:55:46;;;;;;;10.80;9.38;;;6.90;99.90;;;;;;4938583;29;20237;-82
2023/12/15 00:58:14;;;;;;;12.80;10.13;;;6.90;99.90;;;;;;4938257;29;20228;-81
2023/12/15 01:00:41;;;;;;;11.60;10.18;;;6.90;99.90;;;;;;4938989;29;20224;-77
2023/12/15 01:03:08;;;;;;;8.90;7.85;;;7.00;99.90;;;;;;4933897;29;20237;-76
2023/12/15 01:05:35;;;;;;;11.93;9.65;;;6.90;99.90;;;;;;4919496;29;20594;-77
2023/12/15 01:08:04;;;;;;;11.68;9.85;;;7.00;99.90;;;;;;4918896;29;20371;-78
2023/12/15 01:10:31;;;;;;;10.77;9.48;;;7.00;99.90;;;;;;4919143;29;20357;-76
2023/12/15 01:12:58;;;;;;;10.57;9.07;;;7.00;99.90;;;;;;4918567;29;20288;-76
2023/12/15 01:15:32;;;;;;;12.55;10.30;;;7.00;99.90;;;;;;4919901;29;20228;-80
2023/12/15 01:17:59;;;;;;;10.50;8.32;;;7.00;99.90;;;;;;4918361;29;20275;-75
2023/12/15 01:20:26;;;;;;;9.80;8.65;;;7.00;99.90;;;;;;4919107;29;20232;-77
2023/12/15 01:22:53;;;;;;;12.15;9.13;;;7.00;99.90;;;;;;4919461;29;20236;-77
2023/12/15 01:25:22;;;;;;;11.20;8.77;;;7.00;99.90;;;;;;4920329;29;20679;-81
2023/12/15 01:27:49;;;;;;;11.48;9.18;;;7.00;99.90;;;;;;4918930;29;20237;-77
2023/12/15 01:30:16;;;;;;;15.23;9.05;;;7.00;99.90;;;;;;4918373;29;20234;-77
2023/12/15 01:32:43;;;;;;;11.63;9.85;;;7.00;99.90;;;;;;4918829;29;20390;-76
2023/12/15 01:35:10;;;;;;;8.50;7.57;;;7.00;99.90;;;;;;4918545;29;20245;-77
2023/12/15 01:37:37;;;;;;;8.68;7.70;;;7.00;99.90;;;;;;4918901;29;20236;-80
2023/12/15 01:40:04;;;;;;;9.65;8.30;;;7.00;99.90;;;;;;4918152;29;20233;-77
2023/12/15 01:42:32;;;;;;;11.38;7.50;;;7.00;99.90;;;;;;4919227;29;20229;-77
2023/12/15 01:45:00;;;;;;;11.48;8.38;;;7.00;99.90;;;;;;4937290;29;20244;-78
2023/12/15 01:47:27;;;;;;;10.93;8.10;;;7.00;99.90;;;;;;4938058;29;20234;-76
2023/12/15 01:49:58;;;;;;;8.70;7.45;;;6.90;99.90;;;;;;4939022;29;20225;-76
2023/12/15 01:52:25;;;;;;;11.57;9.75;;;7.00;99.90;;;;;;4927613;29;20236;-77
2023/12/15 01:54:52;;;;;;;10.70;7.70;;;6.90;99.90;;;;;;4930971;29;20225;-77
2023/12/15 01:57:20;;;;;;;9.25;8.32;;;7.00;99.90;;;;;;4916680;29;20229;-77
2023/12/15 01:59:49;;;;;;;10.32;8.65;;;7.00;99.90;;;;;;4918284;29;20241;-81
2023/12/15 02:02:16;;;;;;;9.38;8.05;;;7.00;99.90;;;;;;4918131;29;20285;-76
2023/12/15 02:04:44;;;;;;;10.90;9.32;;;7.00;99.90;;;;;;4918039;29;20257;-80
2023/12/15 02:07:11;;;;;;;10.13;7.90;;;7.00;99.90;;;;;;4917767;29;20239;-80
2023/12/15 02:09:39;;;;;;;10.32;7.70;;;6.90;99.90;;;;;;4918093;29;20240;-77
2023/12/15 02:12:08;;;;;;;11.38;7.97;;;6.90;99.90;;;;;;4917645;29;20272;-78
2023/12/15 02:14:35;;;;;;;9.65;7.95;;;6.90;99.90;;;;;;4918276;29;20548;-77
2023/12/15 02:17:03;;;;;;;8.32;7.53;;;6.90;99.90;;;;;;4918098;29;20555;-80
2023/12/15 02:19:30;;;;;;;9.60;8.00;;;6.90;99.90;;;;;;4917445;29;20240;-80
2023/12/15 02:21:57;;;;;;;10.07;7.93;;;6.90;99.90;;;;;;4918140;29;20245;-80
2023/12/15 02:24:26;;;;;;;10.60;7.82;;;6.80;99.90;;;;;;4917291;29;20248;-80
2023/12/15 02:26:53;;;;;;;9.27;7.82;;;6.80;99.90;;;;;;4917702;29;20225;-80
2023/12/15 02:29:20;;;;;;;10.85;8.77;;;6.70;99.90;;;;;;4917036;29;20236;-80
2023/12/15 02:31:47;;;;;;;9.45;7.78;;;6.70;99.90;;;;;;4917954;29;20233;-77
2023/12/15 02:34:14;;;;;;;10.23;7.85;;;6.70;99.90;;;;;;4917175;29;20576;-77
2023/12/15 02:36:41;;;;;;;11.77;8.88;;;6.70;99.90;;;;;;4917626;29;20225;-76
2023/12/15 02:39:08;;;;;;;11.75;9.25;;;6.70;99.90;;;;;;4917338;29;20237;-78
2023/12/15 02:41:36;;;;;;;10.25;8.07;;;6.70;99.90;;;;;;4917398;29;20260;-76
2023/12/15 02:44:04;;;;;;;11.38;8.35;;;6.60;99.90;;;;;;4917554;29;20676;-80
2023/12/15 02:46:31;;;;;;;9.13;7.30;;;6.70;99.90;;;;;;4917677;29;20221;-80
2023/12/15 02:49:01;;;;;;;10.35;7.90;;;6.70;99.90;;;;;;4917761;29;20698;-80
2023/12/15 02:51:28;;;;;;;8.65;7.10;;;6.60;99.90;;;;;;4916464;29;20240;-76
2023/12/15 02:53:55;;;;;;;9.25;8.27;;;6.60;99.90;;;;;;4917684;29;20232;-80
2023/12/15 02:56:28;;;;;;;9.43;7.93;;;6.60;99.90;;;;;;4917287;29;20241;-80
2023/12/15 02:58:59;;;;;;;10.93;8.40;;;6.50;99.90;;;;;;4917513;29;20226;-77
2023/12/15 03:01:26;;;;;;;8.05;7.25;;;6.50;99.90;;;;;;4917102;29;20228;-81
2023/12/15 03:03:53;;;;;;;9.10;7.78;;;6.50;99.90;;;;;;4917602;29;20237;-81
2023/12/15 03:06:20;;;;;;;9.65;7.80;;;6.50;99.90;;;;;;4917178;29;20236;-80
2023/12/15 03:08:47;;;;;;;10.68;7.35;;;6.40;99.90;;;;;;4917426;29;20230;-80
2023/12/15 03:11:15;;;;;;;10.52;8.00;;;6.40;99.90;;;;;;4915644;29;20735;-77
2023/12/15 03:13:41;;;;;;;9.90;7.70;;;6.40;99.90;;;;;;4917322;29;20229;-80
2023/12/15 03:16:12;;;;;;;11.60;8.63;;;6.40;99.90;;;;;;4917290;29;20225;-77
2023/12/15 03:18:39;;;;;;;9.30;7.07;;;6.30;99.90;;;;;;4916694;29;20221;-77
2023/12/15 03:21:07;;;;;;;11.55;8.18;;;6.30;99.90;;;;;;4916402;29;20296;-76
2023/12/15 03:23:34;;;;;;;12.30;10.13;;;6.30;99.90;;;;;;4916213;29;20233;-77
2023/12/15 03:25:59;;;;;;;9.55;7.13;;;6.30;99.90;;;;;;4916954;29;20321;-76
2023/12/15 03:28:27;;;;;;;11.93;7.93;;;6.20;99.90;;;;;;4916459;29;20308;-80
2023/12/15 03:30:54;;;;;;;9.05;8.15;;;6.20;99.90;;;;;;4917190;29;20987;-80
2023/12/15 03:33:25;;;;;;;8.65;7.63;;;6.20;99.90;;;;;;4920658;29;20255;-80
2023/12/15 03:35:52;;;;;;;10.50;8.10;;;6.20;99.90;;;;;;4919760;29;20237;-80
2023/12/15 03:38:19;;;;;;;13.80;10.13;;;6.10;99.90;;;;;;4917676;29;20251;-80
2023/12/15 03:40:46;;;;;;;11.52;8.70;;;6.10;99.90;;;;;;4917123;29;20317;-80
2023/12/15 03:43:16;;;;;;;9.13;8.25;;;6.10;99.90;;;;;;4916776;29;20230;-80
2023/12/15 03:45:43;;;;;;;17.27;12.13;;;6.10;99.90;;;;;;4916678;29;20599;-79
2023/12/15 03:48:10;;;;;;;15.68;12.73;;;6.10;99.90;;;;;;4917034;29;20233;-80
2023/12/15 03:50:39;;;;;;;14.20;11.55;;;6.10;99.90;;;;;;4916294;29;20292;-81
2023/12/15 03:53:06;;;;;;;12.60;9.93;;;6.10;99.90;;;;;;4917576;29;20230;-81
2023/12/15 03:55:33;;;;;;;13.32;9.60;;;6.00;99.90;;;;;;4916232;29;20320;-77
2023/12/15 03:58:00;;;;;;;11.77;10.10;;;6.00;99.90;;;;;;4916502;29;20229;-81
2023/12/15 04:00:28;;;;;;;14.60;12.45;;;6.00;99.90;;;;;;4916440;29;20229;-81
2023/12/15 04:02:55;;;;;;;16.15;12.45;;;6.00;99.90;;;;;;4916787;29;20312;-77
2023/12/15 04:05:22;;;;;;;19.75;13.10;;;6.00;99.90;;;;;;4916533;29;20243;-81
2023/12/15 04:07:50;;;;;;;16.45;12.30;;;6.00;99.90;;;;;;4916841;29;20245;-77
2023/12/15 04:10:19;;;;;;;18.80;14.45;;;5.90;99.90;;;;;;4915745;29;20253;-76
2023/12/15 04:12:46;;;;;;;19.08;12.07;;;5.90;99.90;;;;;;4917873;29;20325;-77
2023/12/15 04:15:13;;;;;;;14.38;12.65;;;5.90;99.90;;;;;;4920420;29;20233;-76
2023/12/15 04:17:42;;;;;;;14.07;12.57;;;5.90;99.90;;;;;;4919479;29;20240;-77
2023/12/15 04:20:09;;;;;;;14.32;9.95;;;5.80;99.90;;;;;;4920264;29;20242;-81
2023/12/15 04:22:36;;;;;;;13.07;10.60;;;5.80;99.90;;;;;;4919317;29;20570;-81
2023/12/15 04:25:05;;;;;;;11.07;8.68;;;5.80;99.90;;;;;;4919901;29;20240;-77
2023/12/15 04:27:35;;;;;;;15.10;11.07;;;5.80;99.90;;;;;;4919429;29;20237;-77
2023/12/15 04:30:02;;;;;;;13.20;9.77;;;5.70;99.90;;;;;;4920044;29;20239;-77
2023/12/15 04:32:32;;;;;;;15.95;10.75;;;5.70;99.90;;;;;;4919430;29;20582;-77
2023/12/15 04:34:59;;;;;;;20.63;13.50;;;5.70;99.90;;;;;;4919057;29;20229;-77
2023/12/15 04:37:26;;;;;;;19.98;12.25;;;5.70;99.90;;;;;;4919761;29;20308;-80
2023/12/15 04:39:52;;;;;;;17.75;12.20;;;5.70;99.90;;;;;;4920446;29;20237;-81
2023/12/15 04:42:21;;;;;;;14.52;11.50;;;5.60;99.90;;;;;;4919745;29;20233;-77
2023/12/15 04:44:48;;;;;;;18.20;11.00;;;5.60;99.90;;;;;;4919577;29;20630;-77
2023/12/15 04:47:14;;;;;;;16.27;11.88;;;5.60;99.90;;;;;;4919939;29;20233;-81
2023/12/15 04:49:41;;;;;;;18.40;12.10;;;5.60;99.90;;;;;;4918592;29;20260;-77
2023/12/15 04:52:08;;;;;;;15.85;11.57;;;5.60;99.90;;;;;;4919759;29;20312;-77
2023/12/15 04:54:35;;;;;;;20.30;11.40;;;5.60;99.90;;;;;;4916488;29;20249;-77
2023/12/15 04:57:11;;;;;;;20.15;12.65;;;5.60;99.90;;;;;;4919817;29;20300;-77
2023/12/15 04:59:41;;;;;;;20.88;12.68;;;5.60;99.90;;;;;;4919896;29;20236;-80
2023/12/15 05:02:08;;;;;;;16.38;12.07;;;5.50;99.90;;;;;;4933925;29;20229;-77
2023/12/15 05:04:35;;;;;;;17.52;11.90;;;5.50;99.90;;;;;;4920657;29;20233;-77
2023/12/15 05:07:03;;;;;;;16.73;10.90;;;5.40;99.90;;;;;;4920839;29;20690;-81
2023/12/15 05:09:29;;;;;;;13.82;9.88;;;5.40;99.90;;;;;;4924558;29;20284;-77
2023/12/15 05:11:57;;;;;;;16.02;11.55;;;5.40;99.90;;;;;;4909573;29;20316;-77
2023/12/15 05:14:24;;;;;;;13.50;9.52;;;5.40;99.90;;;;;;4918824;29;20296;-77
2023/12/15 05:16:52;;;;;;;16.15;9.88;;;5.30;99.90;;;;;;4919374;29;20225;-81
2023/12/15 05:19:19;;;;;;;18.15;11.05;;;5.30;99.90;;;;;;4919923;29;20245;-77
2023/12/15 05:21:46;;;;;;;14.00;9.90;;;5.30;99.90;;;;;;4918537;29;20231;-81
2023/12/15 05:24:14;;;;;;;14.80;9.50;;;5.30;99.90;;;;;;4917814;29;20264;-76
2023/12/15 05:26:41;;;;;;;15.30;10.43;;;5.30;99.90;;;;;;4918700;29;20229;-81
2023/12/15 05:29:08;;;;;;;14.85;11.32;;;5.30;99.90;;;;;;4919305;29;20236;-77
2023/12/15 05:31:42;;;;;;;17.58;10.75;;;5.20;99.90;;;;;;4918096;29;20652;-77
2023/12/15 05:34:10;;;;;;;13.75;10.93;;;5.20;99.90;;;;;;4918656;29;20228;-77
2023/12/15 05:36:37;;;;;;;20.80;11.68;;;5.30;99.90;;;;;;4918310;29;20731;-77
2023/12/15 05:39:04;;;;;;;17.20;10.32;;;5.30;99.90;;;;;;4918819;29;20226;-80
2023/12/15 05:41:31;;;;;;;23.13;11.48;;;5.30;99.90;;;;;;4918345;29;20614;-80
2023/12/15 05:43:58;;;;;;;18.27;11.05;;;5.30;99.90;;;;;;4918383;29;20300;-81
2023/12/15 05:46:25;;;;;;;16.00;12.15;;;5.30;99.90;;;;;;4918611;29;20225;-81
2023/12/15 05:48:52;;;;;;;21.95;13.30;;;5.30;99.90;;;;;;4918569;29;20234;-80
2023/12/15 05:51:20;;;;;;;16.67;11.25;;;5.30;99.90;;;;;;4919060;29;20247;-80
2023/12/15 05:53:47;;;;;;;15.95;10.60;;;5.30;99.90;;;;;;4917864;29;20300;-77
2023/12/15 05:56:29;;;;;;;13.48;10.65;;;5.30;99.90;;;;;;4918178;29;20317;-80
2023/12/15 05:58:57;;;;;;;14.98;10.73;;;5.30;99.90;;;;;;4917609;29;20656;-76
2023/12/15 06:01:24;;;;;;;13.30;10.38;;;5.30;99.90;;;;;;4918613;29;20233;-81
2023/12/15 06:03:52;;;;;;;15.20;10.45;;;5.40;99.90;;;;;;4918129;29;20261;-81
2023/12/15 06:06:20;;;;;;;13.32;11.05;;;5.30;99.90;;;;;;4921474;29;20312;-81
2023/12/15 06:08:47;;;;;;;14.25;10.50;;;5.30;99.90;;;;;;4918236;29;20350;-77
2023/12/15 06:11:14;;;;;;;12.60;9.32;;;5.20;99.90;;;;;;4918513;29;20229;-77
2023/12/15 06:13:41;;;;;;;13.00;9.85;;;5.20;99.90;;;;;;4917673;29;20233;-76
2023/12/15 06:16:09;;;;;;;17.42;12.13;;;5.30;99.90;;;;;;4918201;29;20296;-80
2023/12/15 06:18:40;;;;;;;15.23;12.35;;;5.30;99.90;;;;;;4917833;29;20225;-77
2023/12/15 06:21:07;;;;;;;14.23;11.55;;;5.30;99.90;;;;;;4918141;29;20229;-77
2023/12/15 06:23:36;;;;;;;15.88;10.85;;;5.30;99.90;;;;;;4917599;29;20244;-75
2023/12/15 06:26:02;;;;;;;13.40;10.20;;;5.30;99.90;;;;;;4917732;29;20229;-77
2023/12/15 06:28:29;;;;;;;13.63;9.90;;;5.30;99.90;;;;;;4918077;29;20221;-76
2023/12/15 06:30:56;;;;;;;13.30;9.57;;;5.30;99.90;;;;;;4917092;29;20253;-75
2023/12/15 06:33:23;;;;;;;14.90;11.32;;;5.30;99.90;;;;;;4917927;29;20225;-80
2023/12/15 06:35:50;;;;;;;21.30;13.13;;;5.40;99.90;;;;;;4917426;29;20308;-80
2023/12/15 06:38:17;;;;;;;23.63;14.30;;;5.40;99.90;;;;;;4917576;29;20225;-81
2023/12/15 06:40:45;;;;;;;20.65;14.85;;;5.40;99.90;;;;;;4917146;29;20237;-76
2023/12/15 06:43:12;;;;;;;17.05;12.50;;;5.40;99.90;;;;;;4918157;29;20308;-80
2023/12/15 06:45:39;;;;;;;15.75;11.45;;;5.40;99.90;;;;;;4917288;29;20316;-81
2023/12/15 06:48:06;;;;;;;14.95;10.65;;;5.50;99.90;;;;;;4917950;29;20213;-77
2023/12/15 06:51:15;;;;;;;14.90;11.30;;;5.50;99.90;;;;;;4917299;29;20660;-81
2023/12/15 06:53:42;;;;;;;19.33;12.63;;;5.50;99.90;;;;;;4917363;29;20578;-76
2023/12/15 06:56:10;;;;;;;15.40;11.35;;;5.50;99.90;;;;;;4917276;29;20225;-75
2023/12/15 06:58:37;;;;;;;17.60;12.20;;;5.50;99.90;;;;;;4916757;29;20233;-75
2023/12/15 07:01:05;;;;;;;20.30;13.57;;;5.50;99.90;;;;;;4917404;29;20790;-76
2023/12/15 07:03:32;;;;;;;16.98;12.05;;;5.50;99.90;;;;;;4916893;29;20726;-75
2023/12/15 07:05:58;;;;;;;16.33;12.73;;;5.60;99.90;;;;;;4917165;29;20312;-75
2023/12/15 07:08:25;;;;;;;15.82;11.88;;;5.60;99.90;;;;;;4916733;29;20230;-76
2023/12/15 07:10:52;;;;;;;18.50;14.52;;;5.70;99.90;;;;;;4917234;29;20680;-75
2023/12/15 07:13:21;;;;;;;20.85;14.48;;;5.70;99.90;;;;;;4916880;29;20237;-76
2023/12/15 07:15:47;;;;;;;17.58;13.35;;;5.70;99.90;;;;;;4916802;29;20304;-75
2023/12/15 07:18:14;;;;;;;21.95;17.10;;;5.80;99.90;;;;;;4916905;29;20620;-75
2023/12/15 07:20:41;;;;;;;21.10;15.10;;;5.80;99.90;;;;;;4916556;29;20229;-75
2023/12/15 07:23:08;;;;;;;18.25;13.48;;;5.80;99.90;;;;;;4916736;29;20320;-75
2023/12/15 07:25:37;;;;;;;17.83;12.63;;;5.80;99.90;;;;;;4916295;29;20319;-75
2023/12/15 07:28:04;;;;;;;21.83;14.40;;;5.90;99.90;;;;;;4917196;29;20221;-75
2023/12/15 07:30:32;;;;;;;19.45;14.30;;;5.80;99.90;;;;;;4916710;29;20225;-75
2023/12/15 07:32:59;;;;;;;19.30;15.32;;;5.80;99.90;;;;;;4917088;29;20237;-76
2023/12/15 07:35:26;;;;;;;21.42;13.95;;;5.80;99.90;;;;;;4920966;29;20229;-75
2023/12/15 07:37:55;;;;;;;19.88;13.65;;;5.80;99.90;;;;;;4917707;29;20617;-75
2023/12/15 07:40:23;;;;;;;21.95;14.80;;;5.90;99.90;;;;;;4917056;29;20265;-75
2023/12/15 07:42:49;;;;;;;22.27;14.32;;;6.00;99.90;;;;;;4915829;29;20229;-75
2023/12/15 07:45:16;;;;;;;24.80;14.20;;;6.00;99.90;;;;;;4916837;29;20235;-77
2023/12/15 07:47:44;;;;;;;25.90;17.10;;;6.00;99.90;;;;;;4918078;29;20288;-75
2023/12/15 07:50:11;;;;;;;22.20;15.25;;;6.00;99.90;;;;;;4920283;29;20300;-75
2023/12/15 07:52:38;;;;;;;19.40;13.63;;;6.10;99.90;;;;;;4920064;29;20233;-75
2023/12/15 07:55:06;;;;;;;22.90;14.85;;;6.20;99.90;;;;;;4920723;29;20225;-75
2023/12/15 07:57:34;;;;;;;21.55;15.43;;;6.20;99.90;;;;;;4919578;29;20240;-75
2023/12/15 08:00:00;;;;;;;20.55;14.77;;;6.20;99.90;;;;;;4920694;29;20225;-75
2023/12/15 08:02:27;;;;;;;25.45;13.90;;;6.20;99.90;;;;;;4920351;29;20229;-75
2023/12/15 08:04:58;;;;;;;24.15;15.63;;;6.30;99.90;;;;;;4920201;29;20229;-75
2023/12/15 08:07:25;;;;;;;22.75;15.20;;;6.30;99.90;;;;;;4920327;29;20280;-75
2023/12/15 08:09:52;;;;;;;24.02;16.23;;;6.30;99.90;;;;;;4919812;29;20233;-75
2023/12/15 08:12:19;;;;;;;25.05;16.20;;;6.30;99.90;;;;;;4920145;29;20268;-75
2023/12/15 08:14:46;;;;;;;28.98;19.42;;;6.30;99.90;;;;;;4919782;29;20221;-75
2023/12/15 08:17:12;;;;;;;28.13;18.23;;;6.30;99.90;;;;;;4920090;29;20570;-76
2023/12/15 08:19:40;;;;;;;23.00;16.10;;;6.30;99.90;;;;;;4919766;29;20613;-76
2023/12/15 08:22:08;;;;;;;27.10;16.10;;;6.30;99.90;;;;;;4919825;29;20225;-76
2023/12/15 08:24:35;;;;;;;24.77;16.75;;;6.30;99.90;;;;;;4918333;29;20316;-80
2023/12/15 08:27:03;;;;;;;23.05;15.45;;;6.30;99.90;;;;;;4920266;29;20249;-80
2023/12/15 08:29:29;;;;;;;25.38;16.92;;;6.30;99.90;;;;;;4920106;29;20249;-80
2023/12/15 08:31:57;;;;;;;23.50;15.70;;;6.30;99.90;;;;;;4919567;29;20296;-76
2023/12/15 08:34:26;;;;;;;24.23;15.70;;;6.30;99.90;;;;;;4910442;29;20710;-76
2023/12/15 08:36:53;;;;;;;28.58;17.05;;;6.40;99.90;;;;;;4918817;29;20236;-76
2023/12/15 08:39:21;;;;;;;26.50;17.35;;;6.40;99.90;;;;;;4919369;29;20249;-77
2023/12/15 08:41:48;;;;;;;29.10;18.52;;;6.40;99.90;;;;;;4918384;29;20257;-77
2023/12/15 08:44:15;;;;;;;25.58;16.40;;;6.40;99.90;;;;;;4919526;29;20308;-76
2023/12/15 08:46:42;;;;;;;26.95;17.30;;;6.40;99.90;;;;;;4918769;29;20249;-76
2023/12/15 08:49:09;;;;;;;23.95;16.17;;;6.40;99.90;;;;;;4920018;29;20241;-77
2023/12/15 08:51:36;;;;;;;31.83;19.25;;;6.50;99.90;;;;;;4919349;29;20600;-76
2023/12/15 08:54:03;;;;;;;27.63;19.27;;;6.50;99.90;;;;;;4919015;29;20312;-77
2023/12/15 08:56:31;;;;;;;27.58;16.52;;;6.40;99.90;;;;;;4919552;29;20275;-76
2023/12/15 08:58:58;;;;;;;28.75;18.95;;;6.40;99.90;;;;;;4918929;29;20229;-76
2023/12/15 09:01:25;;;;;;;26.10;19.17;;;6.50;99.90;;;;;;4919383;29;20225;-77
2023/12/15 09:03:52;;;;;;;27.83;18.73;;;6.50;99.90;;;;;;4918999;29;20237;-76
2023/12/15 09:06:18;;;;;;;32.15;20.10;;;6.50;99.90;;;;;;4919129;29;20312;-76
2023/12/15 09:08:45;;;;;;;27.65;17.40;;;6.40;99.90;;;;;;4918611;29;20229;-76
2023/12/15 09:11:12;;;;;;;26.20;16.98;;;6.40;99.90;;;;;;4919320;29;20229;-76
2023/12/15 09:13:40;;;;;;;29.00;19.50;;;6.40;99.90;;;;;;4918976;29;20293;-75
2023/12/15 09:16:08;;;;;;;27.83;18.80;;;6.40;99.90;;;;;;4919043;29;20229;-81
2023/12/15 09:18:35;;;;;;;24.35;17.90;;;6.40;99.90;;;;;;4918791;29;20292;-79
2023/12/15 09:21:02;;;;;;;24.63;18.45;;;6.40;99.90;;;;;;4918569;29;20317;-76
2023/12/15 09:23:29;;;;;;;26.92;18.17;;;6.40;99.90;;;;;;4909547;29;20240;-79
2023/12/15 09:25:56;;;;;;;26.50;17.63;;;6.50;99.90;;;;;;4925946;29;20237;-80
2023/12/15 09:28:23;;;;;;;22.83;17.25;;;6.60;99.90;;;;;;4919103;29;20225;-80
2023/12/15 09:30:51;;;;;;;27.08;18.75;;;6.70;99.90;;;;;;4917718;29;20320;-78
2023/12/15 09:33:17;;;;;;;31.35;19.90;;;6.70;99.90;;;;;;4937510;29;20243;-80
2023/12/15 09:35:44;;;;;;;25.48;16.52;;;6.70;99.90;;;;;;4937996;29;20343;-80
2023/12/15 09:38:12;;;;;;;26.30;19.42;;;6.70;99.90;;;;;;4937936;29;20599;-80
2023/12/15 09:40:39;;;;;;;25.65;18.02;;;6.70;99.90;;;;;;4937932;29;20229;-80
2023/12/15 09:43:06;;;;;;;29.92;20.63;;;6.80;99.90;;;;;;4937487;29;20252;-76
2023/12/15 09:45:33;;;;;;;25.48;17.42;;;6.80;99.90;;;;;;4937861;29;20227;-76
2023/12/15 09:48:05;;;;;;;33.03;19.90;;;6.90;99.90;;;;;;4937259;29;20232;-76
2023/12/15 09:50:34;;;;;;;28.92;20.88;;;6.90;99.90;;;;;;4937191;29;20224;-77
2023/12/15 09:53:04;;;;;;;31.95;21.08;;;6.90;99.90;;;;;;4937168;29;20259;-76
2023/12/15 09:55:31;;;;;;;31.20;19.15;;;6.90;99.90;;;;;;4937413;29;20229;-76
2023/12/15 09:58:06;;;;;;;29.00;18.50;;;7.00;99.90;;;;;;4936980;29;20232;-76
2023/12/15 10:00:34;;;;;;;38.20;19.42;;;7.00;99.90;;;;;;4937760;29;20264;-76
2023/12/15 10:03:02;;;;;;;27.55;18.58;;;7.00;99.90;;;;;;4936889;29;20340;-77
2023/12/15 10:05:29;;;;;;;25.70;18.10;;;7.00;99.90;;;;;;4939089;29;20675;-80
2023/12/15 10:07:56;;;;;;;22.52;16.40;;;7.10;99.90;;;;;;4944106;29;20235;-80
2023/12/15 10:10:26;;;;;;;30.23;17.00;;;7.10;99.90;;;;;;4947754;29;20292;-81
2023/12/15 10:12:55;;;;;;;25.65;17.95;;;7.10;99.90;;;;;;4947811;29;20245;-79
2023/12/15 10:15:23;;;;;;;22.58;17.50;;;7.10;99.90;;;;;;4946168;29;20228;-79
2023/12/15 10:17:50;;;;;;;25.92;17.40;;;7.10;99.90;;;;;;4940544;29;20228;-76
2023/12/15 10:20:23;;;;;;;25.23;16.42;;;7.20;99.90;;;;;;4938271;29;20221;-81
2023/12/15 10:23:01;;;;;;;21.67;15.88;;;7.30;99.90;;;;;;4939151;29;20695;-76
2023/12/15 10:25:28;;;;;;;19.83;15.02;;;7.30;99.90;;;;;;4937272;29;20256;-76
2023/12/15 10:27:55;;;;;;;24.90;17.48;;;7.30;99.90;;;;;;4939301;29;20304;-80
2023/12/15 10:30:22;;;;;;;25.00;16.15;;;7.40;99.90;;;;;;4943884;29;20225;-80
2023/12/15 10:32:49;;;;;;;27.08;16.35;;;7.40;99.90;;;;;;4943684;29;20319;-79
2023/12/15 10:35:18;;;;;;;28.50;18.98;;;7.40;99.90;;;;;;4940380;29;20343;-76
2023/12/15 10:37:46;;;;;;;27.92;18.77;;;7.50;99.90;;;;;;4938695;29;20237;-76
2023/12/15 10:40:14;;;;;;;25.10;16.05;;;7.40;99.90;;;;;;4936555;29;20236;-77
2023/12/15 10:42:42;;;;;;;20.27;15.75;;;7.50;99.90;;;;;;4936880;29;20264;-81
2023/12/15 10:45:10;;;;;;;20.73;14.82;;;7.50;99.90;;;;;;4936589;29;20239;-81
2023/12/15 10:47:37;;;;;;;20.17;15.48;;;7.60;99.90;;;;;;4937771;29;20221;-81
2023/12/15 10:50:07;;;;;;;23.50;15.23;;;7.60;99.90;;;;;;4937379;29;20232;-81
2023/12/15 10:52:37;;;;;;;25.40;16.90;;;7.60;99.90;;;;;;4936481;29;21397;-77
2023/12/15 10:55:08;;;;;;;23.77;16.25;;;7.60;99.90;;;;;;4936528;29;20336;-80
2023/12/15 10:57:35;;;;;;;26.23;16.40;;;7.50;99.90;;;;;;4935261;29;20291;-77
2023/12/15 11:00:04;;;;;;;22.80;16.98;;;7.40;99.90;;;;;;4936565;29;20256;-77
2023/12/15 11:02:34;;;;;;;25.77;16.67;;;7.50;99.90;;;;;;4935651;29;20696;-77
2023/12/15 11:05:02;;;;;;;22.38;16.33;;;7.50;99.90;;;;;;4935443;29;20225;-77
2023/12/15 11:07:32;;;;;;;25.35;17.75;;;7.40;99.90;;;;;;4935518;29;20238;-77
2023/12/15 11:10:00;;;;;;;21.70;15.07;;;7.40;99.90;;;;;;4936243;29;20316;-77
2023/12/15 11:12:33;;;;;;;22.45;15.23;;;7.40;99.90;;;;;;4935745;29;20244;-77
2023/12/15 11:15:02;;;;;;;24.50;17.13;;;7.50;99.90;;;;;;4935799;29;20735;-77
2023/12/15 11:17:30;;;;;;;21.67;15.90;;;7.60;99.90;;;;;;4935906;29;20232;-77
2023/12/15 11:20:06;;;;;;;25.42;16.13;;;7.60;99.90;;;;;;4936214;29;20311;-77
2023/12/15 11:22:43;;;;;;;23.17;16.45;;;7.60;99.90;;;;;;4935564;29;20232;-77
2023/12/15 11:25:18;;;;;;;22.45;15.80;;;7.60;99.90;;;;;;4924661;29;20324;-77
2023/12/15 11:28:09;;;;;;;22.70;16.80;;;7.60;99.90;;;;;;4916541;29;20656;-77
2023/12/15 11:30:37;;;;;;;27.77;18.95;;;7.70;99.90;;;;;;4916593;29;20257;-77
2023/12/15 11:33:43;;;;;;;28.88;18.55;;;7.60;99.90;;;;;;4917112;29;20237;-77
2023/12/15 11:36:13;;;;;;;28.50;19.98;;;7.70;99.90;;;;;;4913546;29;20216;-80
2023/12/15 11:38:41;;;;;;;25.05;16.27;;;7.60;99.90;;;;;;4916861;29;20225;-81
2023/12/15 11:41:09;;;;;;;21.27;16.17;;;7.70;99.90;;;;;;4916402;29;20263;-76
2023/12/15 11:43:38;;;;;;;27.27;17.02;;;7.70;99.90;;;;;;4916787;29;20229;-76
2023/12/15 11:46:07;;;;;;;22.25;15.35;;;7.70;99.90;;;;;;4916307;29;20232;-77
2023/12/15 11:48:35;;;;;;;19.23;15.13;;;7.70;99.90;;;;;;4916612;29;20233;-80
2023/12/15 11:51:02;;;;;;;20.80;16.10;;;7.70;99.90;;;;;;4917098;29;20330;-80
2023/12/15 11:53:32;;;;;;;24.05;16.55;;;7.70;99.90;;;;;;4916177;29;20230;-76
2023/12/15 11:56:01;;;;;;;21.63;16.08;;;7.60;99.90;;;;;;4916848;29;20237;-76
2023/12/15 11:58:28;;;;;;;25.98;17.35;;;7.70;99.90;;;;;;4916162;29;20602;-76
2023/12/15 12:00:57;;;;;;;23.33;15.63;;;7.70;99.90;;;;;;4916554;29;20263;-76
2023/12/15 12:03:25;;;;;;;23.95;17.13;;;7.60;99.90;;;;;;4915806;29;20320;-80
2023/12/15 12:05:54;;;;;;;26.73;18.02;;;7.50;99.90;;;;;;4916759;29;20691;-80
2023/12/15 12:08:22;;;;;;;27.63;18.42;;;7.50;99.90;;;;;;4918645;29;20237;-79
2023/12/15 12:10:53;;;;;;;30.10;22.33;;;7.40;99.90;;;;;;4919228;29;20236;-75
2023/12/15 12:13:21;;;;;;;25.70;19.52;;;7.40;99.90;;;;;;4926593;29;20225;-76
2023/12/15 12:15:52;;;;;;;26.17;18.45;;;7.40;99.90;;;;;;4934972;29;20320;-75
2023/12/15 12:18:21;;;;;;;28.63;20.83;;;7.40;99.90;;;;;;4934713;29;20225;-75
2023/12/15 12:20:48;;;;;;;28.27;18.80;;;7.30;99.90;;;;;;4935386;29;20703;-75
2023/12/15 12:23:16;;;;;;;28.42;18.33;;;7.30;99.90;;;;;;4933849;29;20225;-76
2023/12/15 12:25:44;;;;;;;32.65;22.23;;;7.40;99.90;;;;;;4934287;29;20243;-76
2023/12/15 12:28:11;;;;;;;29.30;20.50;;;7.30;99.90;;;;;;4932558;29;20238;-76
2023/12/15 12:30:38;;;;;;;31.73;20.48;;;7.40;99.90;;;;;;4918869;29;20308;-75
2023/12/15 12:33:05;;;;;;;30.52;19.10;;;7.40;99.90;;;;;;4931220;29;20327;-76
2023/12/15 12:35:38;;;;;;;25.02;18.00;;;7.40;99.90;;;;;;4937987;29;20312;-76
2023/12/15 12:38:06;;;;;;;29.17;18.15;;;7.50;99.90;;;;;;4936704;29;20232;-78
2023/12/15 12:40:33;;;;;;;31.40;19.55;;;7.50;99.90;;;;;;4936399;29;20236;-76
2023/12/15 12:43:01;;;;;;;28.75;19.48;;;7.60;99.90;;;;;;4936703;29;20315;-75
2023/12/15 12:45:28;;;;;;;30.55;18.92;;;7.60;99.90;;;;;;4933066;29;20220;-77